Calumet — WDE3568 — position and weather

sailwx.info

Track history (hours):
 
Tides and Currents Weather Stations Pressure Air Temp Water Temp Dewpoint Dewpoint Depression Visibility Wind Speed Wind Dir Waves Ship Positions

Calumet

Owner: Grand River Navigation Company, Traverse City, MI. More information available from US FCC via Universal Licensing System and Coast Guard Vessel Documentation Center.

Last reported at 2014-Oct-31 02:33 UTC. Time now 2014-Oct-31 22:20 UTC.
Position N 45°38' W 086°13'.

Length 192 m; draft 6.3 m.

Type: Cargo ship. MMSI: 367132630.

Date/timePositionNaut miles runAvg speedWind from/ knotsBaromVisibWave heightAir tempDewpointWater temp
2014-Oct-31 02:33N 45°38' W 086°13'1211.9
2014-Oct-31 01:33N 45°44' W 085°58'1211.8
2014-Oct-31 00:33N 45°50' W 085°43'1111.5
2014-Oct-30 23:33N 45°54' W 085°28'1211.7
2014-Oct-30 22:33N 45°52' W 085°11'1212.1
2014-Oct-30 21:33N 45°50' W 084°54'1212.1
2014-Oct-30 20:33N 45°46' W 084°37'1211.9
2014-Oct-30 19:33N 45°41' W 084°22'1111.2
2014-Oct-30 18:33N 45°39' W 084°06'  
2014-Oct-21 13:34N 45°41' W 084°18'1110.8
2014-Oct-21 12:34N 45°44' W 084°33'1111.2
2014-Oct-21 11:34N 45°49' W 084°47'1111.2
2014-Oct-21 10:34N 45°51' W 085°03'1111.4
2014-Oct-21 09:34N 45°52' W 085°19'1111.5
2014-Oct-21 08:34N 45°53' W 085°35'1211.5
2014-Oct-21 07:31N 45°56' W 085°52'2 2.1
2014-Oct-21 06:34N 45°58' W 085°52'0 0.0
2014-Oct-21 05:33N 45°58' W 085°52'0 0.0
2014-Oct-21 04:34N 45°58' W 085°52'0 0.0
2014-Oct-21 03:34N 45°58' W 085°52'0 0.0
2014-Oct-21 02:34N 45°58' W 085°52'  
Track history (hours):
 
Tides and Currents Weather Stations Pressure Air Temp Water Temp Dewpoint Dewpoint Depression Visibility Wind Speed Wind Dir Waves Ship Positions

Calumet

Owner: Grand River Navigation Company, Traverse City, MI. More information available from US FCC via Universal Licensing System and Coast Guard Vessel Documentation Center.

Last reported at 2014-Oct-31 02:33 UTC. Time now 2014-Oct-31 22:20 UTC.
Position N 45°38' W 086°13'.

Length 192 m; draft 6.3 m.

Type: Cargo ship. MMSI: 367132630.

Date/timePositionNaut miles runAvg speedWind from/ knotsBaromVisibWave heightAir tempDewpointWater temp
2014-Oct-31 02:33N 45°38' W 086°13'1211.9
2014-Oct-31 01:33N 45°44' W 085°58'1211.8
2014-Oct-31 00:33N 45°50' W 085°43'1111.5
2014-Oct-30 23:33N 45°54' W 085°28'1211.7
2014-Oct-30 22:33N 45°52' W 085°11'1212.1
2014-Oct-30 21:33N 45°50' W 084°54'1212.1
2014-Oct-30 20:33N 45°46' W 084°37'1211.9
2014-Oct-30 19:33N 45°41' W 084°22'1111.2
2014-Oct-30 18:33N 45°39' W 084°06'  
2014-Oct-21 13:34N 45°41' W 084°18'1110.8
2014-Oct-21 12:34N 45°44' W 084°33'1111.2
2014-Oct-21 11:34N 45°49' W 084°47'1111.2
2014-Oct-21 10:34N 45°51' W 085°03'1111.4
2014-Oct-21 09:34N 45°52' W 085°19'1111.5
2014-Oct-21 08:34N 45°53' W 085°35'1211.5
2014-Oct-21 07:31N 45°56' W 085°52'2 2.1
2014-Oct-21 06:34N 45°58' W 085°52'0 0.0
2014-Oct-21 05:33N 45°58' W 085°52'0 0.0
2014-Oct-21 04:34N 45°58' W 085°52'0 0.0
2014-Oct-21 03:34N 45°58' W 085°52'0 0.0
2014-Oct-21 02:34N 45°58' W 085°52'  

Dump ship's entire track history